Time;durP1;ratioP1;P1;durP2;ratioP2;P2;SDS_P1;SDS_P2;PMS_P1;PMS_P2;Temp;Humidity;BMP_temperature;BMP_pressure;BME280_temperature;BME280_humidity;BME280_pressure;Samples;Min_cycle;Max_cycle;Signal;HPM_P1;HPM_P2
2023/10/16 00:00:32;;;;;;;;;;;18.90;53.50;;;;;;218094;1295;22580;-62
2023/10/16 00:05:54;;;;;;;;;;;18.80;53.40;;;;;;218169;1295;22542;-61
2023/10/16 00:10:58;;;;;;;;;;;18.80;53.50;;;;;;218215;1295;22524;-62
2023/10/16 00:16:05;;;;;;;;;;;18.80;53.50;;;;;;218173;1291;22797;-62
2023/10/16 00:21:07;;;;;;;;;;;18.80;53.80;;;;;;218320;1295;22524;-63
2023/10/16 00:26:13;;;;;;;;;;;18.80;53.50;;;;;;217964;1292;22527;-63
2023/10/16 00:31:23;;;;;;;;;;;18.80;53.30;;;;;;218268;1292;22610;-62
2023/10/16 00:36:25;;;;;;;;;;;18.80;53.70;;;;;;218138;1289;22534;-63
2023/10/16 00:41:28;;;;;;;;;;;18.80;53.40;;;;;;217919;1295;23551;-62
2023/10/16 00:46:38;;;;;;;;;;;18.80;53.40;;;;;;218580;1287;22933;-64
2023/10/16 00:51:41;;;;;;;;;;;18.80;53.70;;;;;;218179;1279;22547;-63
2023/10/16 00:56:45;;;;;;;;;;;18.80;53.40;;;;;;217746;1295;22501;-62
2023/10/16 01:01:47;;;;;;;;;;;18.70;53.30;;;;;;218236;1289;22529;-62
2023/10/16 01:12:58;;;;;;;;;;;18.70;53.30;;;;;;218168;1284;23917;-61
2023/10/16 01:18:02;;;;;;;;;;;18.80;53.30;;;;;;218317;1295;22536;-62
2023/10/16 01:23:05;;;;;;;;;;;18.70;53.40;;;;;;217841;1292;22621;-61
2023/10/16 01:28:09;;;;;;;;;;;18.70;53.20;;;;;;217784;1289;22527;-64
2023/10/16 01:33:13;;;;;;;;;;;18.70;53.20;;;;;;218510;1292;22529;-62
2023/10/16 01:38:17;;;;;;;;;;;18.80;53.50;;;;;;218079;1295;22589;-62
2023/10/16 01:43:20;;;;;;;;;;;18.70;53.20;;;;;;218547;1292;22578;-64
2023/10/16 01:48:24;;;;;;;;;;;18.70;53.20;;;;;;218581;1289;22524;-62
2023/10/16 01:53:32;;;;;;;;;;;18.70;53.20;;;;;;218301;1289;25115;-61
2023/10/16 01:58:36;;;;;;;;;;;18.70;53.30;;;;;;217981;1292;22652;-62
2023/10/16 02:03:44;;;;;;;;;;;18.70;53.30;;;;;;218439;1289;22527;-62
2023/10/16 02:08:47;;;;;;;;;;;18.60;53.20;;;;;;218131;1289;24321;-62
2023/10/16 02:13:50;;;;;;;;;;;18.70;53.20;;;;;;218552;1295;22728;-61
2023/10/16 02:18:55;;;;;;;;;;;18.70;53.50;;;;;;218178;1285;22527;-64
2023/10/16 02:24:03;;;;;;;;;;;18.60;53.10;;;;;;217970;1295;22523;-63
2023/10/16 02:29:06;;;;;;;;;;;18.60;53.20;;;;;;218252;1289;22550;-61
2023/10/16 02:34:14;;;;;;;;;;;18.60;53.10;;;;;;217892;1289;22924;-62
2023/10/16 02:39:37;;;;;;;;;;;18.60;53.30;;;;;;218068;1292;22631;-62
2023/10/16 02:44:42;;;;;;;;;;;18.60;53.10;;;;;;218242;1289;22535;-62
2023/10/16 02:49:47;;;;;;;;;;;18.60;53.80;;;;;;218149;1295;22535;-62
2023/10/16 02:54:51;;;;;;;;;;;18.60;53.50;;;;;;218545;1292;25260;-62
2023/10/16 02:59:54;;;;;;;;;;;18.60;53.10;;;;;;217999;1295;22528;-62
2023/10/16 03:05:10;;;;;;;;;;;18.60;53.10;;;;;;217499;1294;293521;-62
2023/10/16 03:10:14;;;;;;;;;;;18.60;53.20;;;;;;218294;1292;22864;-65
2023/10/16 03:15:20;;;;;;;;;;;18.50;53.00;;;;;;218621;1289;22523;-63
2023/10/16 03:20:35;;;;;;;;;;;18.50;53.20;;;;;;218205;1295;22721;-62
2023/10/16 03:30:44;;;;;;;;;;;18.50;53.20;;;;;;218204;1292;23902;-62
2023/10/16 03:35:49;;;;;;;;;;;18.50;53.10;;;;;;218286;1279;22546;-61
2023/10/16 03:40:53;;;;;;;;;;;18.50;53.30;;;;;;218002;1295;22612;-63
2023/10/16 03:45:55;;;;;;;;;;;18.50;53.30;;;;;;218183;1292;23043;-63
2023/10/16 03:51:00;;;;;;;;;;;18.40;53.20;;;;;;218301;1292;22527;-62
2023/10/16 03:56:04;;;;;;;;;;;18.40;53.30;;;;;;218072;1295;24622;-62
2023/10/16 04:01:10;;;;;;;;;;;18.40;53.30;;;;;;218356;1292;22631;-63
2023/10/16 04:06:18;;;;;;;;;;;18.50;53.40;;;;;;218354;1295;22536;-64
2023/10/16 04:11:25;;;;;;;;;;;18.40;53.20;;;;;;218173;1292;25420;-63
2023/10/16 04:16:43;;;;;;;;;;;18.40;53.20;;;;;;218416;1292;22652;-62
2023/10/16 04:37:41;;;;;;;;;;;18.30;53.20;;;;;;217977;1295;25399;-62
2023/10/16 04:58:27;;;;;;;;;;;18.30;53.50;;;;;;217992;1294;22527;-62
2023/10/16 05:03:23;;;;;;;;;;;18.30;53.40;;;;;;218072;1288;22561;-62
2023/10/16 05:13:39;;;;;;;;;;;18.30;53.30;;;;;;218385;1292;23964;-62
2023/10/16 05:19:01;;;;;;;;;;;18.30;53.20;;;;;;218378;1292;22719;-63
2023/10/16 06:17:51;;;;;;;;;;;18.20;53.20;;;;;;218455;1295;22556;-61
2023/10/16 06:22:54;;;;;;;;;;;18.20;53.10;;;;;;218553;1292;22531;-62
2023/10/16 06:27:56;;;;;;;;;;;18.20;53.10;;;;;;218074;1295;22527;-62
2023/10/16 06:33:02;;;;;;;;;;;18.20;53.80;;;;;;218132;1295;22612;-61
2023/10/16 06:38:11;;;;;;;;;;;18.10;53.10;;;;;;218423;1295;22661;-61
2023/10/16 06:43:14;;;;;;;;;;;18.20;53.20;;;;;;218146;1289;22524;-62
2023/10/16 06:48:17;;;;;;;;;;;18.20;53.10;;;;;;218091;1295;23042;-61
2023/10/16 06:53:23;;;;;;;;;;;18.20;53.00;;;;;;217877;1289;26770;-62
2023/10/16 06:58:26;;;;;;;;;;;18.20;53.10;;;;;;217972;1292;24409;-62
2023/10/16 07:03:29;;;;;;;;;;;18.20;53.10;;;;;;218270;1295;22540;-62
2023/10/16 07:08:33;;;;;;;;;;;18.10;53.40;;;;;;218489;1290;25236;-64
2023/10/16 07:13:38;;;;;;;;;;;18.10;53.00;;;;;;218402;1292;25388;-62
2023/10/16 07:18:42;;;;;;;;;;;18.20;53.00;;;;;;217999;1293;24215;-63
2023/10/16 07:23:45;;;;;;;;;;;18.10;52.90;;;;;;218213;1292;24411;-62
2023/10/16 07:28:50;;;;;;;;;;;18.20;52.70;;;;;;218363;1295;22534;-63
2023/10/16 07:33:59;;;;;;;;;;;18.20;52.90;;;;;;218530;1292;22530;-62
2023/10/16 07:39:03;;;;;;;;;;;18.20;52.80;;;;;;218563;1293;22530;-63
2023/10/16 07:44:06;;;;;;;;;;;18.20;52.80;;;;;;217918;1295;22574;-61
2023/10/16 07:49:15;;;;;;;;;;;18.10;53.00;;;;;;218604;1292;24339;-61
2023/10/16 07:54:20;;;;;;;;;;;18.20;52.80;;;;;;217809;1292;23894;-63
2023/10/16 07:59:23;;;;;;;;;;;18.20;52.80;;;;;;218094;1292;24254;-63
2023/10/16 08:14:31;;;;;;;;;;;18.20;52.80;;;;;;217831;1289;22530;-62
2023/10/16 08:19:34;;;;;;;;;;;18.20;52.80;;;;;;217912;1295;25290;-62
2023/10/16 08:24:43;;;;;;;;;;;18.10;52.70;;;;;;218411;1295;23419;-62
2023/10/16 08:29:58;;;;;;;;;;;18.10;52.70;;;;;;217871;1292;22529;-62
2023/10/16 08:35:07;;;;;;;;;;;18.20;52.80;;;;;;218379;1292;23475;-62
2023/10/16 08:40:19;;;;;;;;;;;18.20;52.80;;;;;;218161;1295;22531;-62
2023/10/16 08:45:26;;;;;;;;;;;18.30;52.50;;;;;;218358;1295;24274;-62
2023/10/16 08:50:41;;;;;;;;;;;18.30;52.50;;;;;;218227;1295;26663;-62
2023/10/16 08:55:44;;;;;;;;;;;18.40;52.40;;;;;;218478;1295;22950;-63
2023/10/16 09:00:48;;;;;;;;;;;18.40;52.60;;;;;;218499;1295;22533;-62
2023/10/16 09:05:51;;;;;;;;;;;18.40;52.30;;;;;;217988;1295;24264;-62
2023/10/16 09:10:54;;;;;;;;;;;18.50;52.20;;;;;;218323;1295;22621;-61
2023/10/16 09:15:57;;;;;;;;;;;18.50;52.20;;;;;;218007;1289;23901;-63
2023/10/16 09:21:00;;;;;;;;;;;18.40;52.30;;;;;;218095;1294;22541;-61
2023/10/16 09:26:06;;;;;;;;;;;18.40;52.30;;;;;;218497;1292;22546;-63
2023/10/16 09:31:09;;;;;;;;;;;18.40;52.20;;;;;;218036;1292;22547;-62
2023/10/16 09:36:18;;;;;;;;;;;18.40;52.60;;;;;;218110;1289;22546;-62
2023/10/16 09:51:45;;;;;;;;;;;18.20;53.00;;;;;;218191;1295;22683;-62
2023/10/16 09:57:08;;;;;;;;;;;18.20;53.30;;;;;;217950;1292;22542;-62
2023/10/16 10:02:18;;;;;;;;;;;18.20;53.10;;;;;;218065;1294;22533;-62
2023/10/16 10:07:34;;;;;;;;;;;18.30;53.50;;;;;;218201;1295;24224;-62
2023/10/16 10:12:42;;;;;;;;;;;18.30;53.00;;;;;;218598;1289;22527;-62
2023/10/16 10:17:46;;;;;;;;;;;18.20;53.50;;;;;;218272;1289;22678;-63
2023/10/16 10:22:53;;;;;;;;;;;18.20;53.60;;;;;;218158;1289;24227;-63
2023/10/16 10:28:09;;;;;;;;;;;18.20;53.60;;;;;;218326;1295;22593;-63
2023/10/16 10:33:13;;;;;;;;;;;18.20;53.60;;;;;;218187;1292;22606;-63
2023/10/16 10:38:24;;;;;;;;;;;18.20;53.70;;;;;;218207;1289;22527;-62
2023/10/16 10:43:49;;;;;;;;;;;18.20;53.80;;;;;;218121;1292;22653;-61
2023/10/16 10:48:56;;;;;;;;;;;18.10;53.60;;;;;;217941;1292;24435;-64
2023/10/16 10:54:06;;;;;;;;;;;18.10;53.70;;;;;;218442;1295;24230;-62
2023/10/16 10:59:10;;;;;;;;;;;18.10;53.70;;;;;;218197;1293;22540;-62
2023/10/16 11:04:16;;;;;;;;;;;18.10;53.70;;;;;;218417;1295;23926;-62
2023/10/16 11:09:26;;;;;;;;;;;18.10;53.70;;;;;;218121;1295;24228;-62
2023/10/16 11:14:34;;;;;;;;;;;18.30;53.20;;;;;;217895;1295;24064;-63
2023/10/16 11:19:49;;;;;;;;;;;18.30;53.10;;;;;;218673;1293;24415;-62
2023/10/16 11:25:13;;;;;;;;;;;18.30;53.00;;;;;;217890;1295;23886;-62
2023/10/16 11:30:18;;;;;;;;;;;18.40;53.00;;;;;;218527;1295;24227;-63
2023/10/16 11:35:21;;;;;;;;;;;18.20;53.40;;;;;;217949;1295;22534;-63
2023/10/16 11:40:31;;;;;;;;;;;18.20;53.50;;;;;;218468;1289;22543;-64
2023/10/16 11:45:34;;;;;;;;;;;18.10;53.50;;;;;;218265;1295;22930;-62
2023/10/16 11:50:41;;;;;;;;;;;18.20;53.90;;;;;;217982;1295;22547;-62
2023/10/16 11:55:45;;;;;;;;;;;18.20;54.00;;;;;;218403;1289;22527;-63
2023/10/16 12:00:57;;;;;;;;;;;18.40;52.80;;;;;;218318;1289;22531;-62
2023/10/16 12:05:59;;;;;;;;;;;18.30;52.90;;;;;;217933;1290;22559;-63
2023/10/16 12:11:03;;;;;;;;;;;18.40;52.90;;;;;;218093;1290;22539;-62
2023/10/16 12:16:06;;;;;;;;;;;18.20;53.70;;;;;;218582;1295;24256;-62
2023/10/16 12:21:29;;;;;;;;;;;18.30;53.30;;;;;;218395;1292;22653;-63
2023/10/16 12:26:32;;;;;;;;;;;18.20;53.30;;;;;;218512;1283;22606;-62
2023/10/16 12:31:35;;;;;;;;;;;18.20;53.30;;;;;;218003;1295;23584;-62
2023/10/16 12:36:38;;;;;;;;;;;18.30;53.10;;;;;;218039;1289;22556;-64
2023/10/16 12:41:41;;;;;;;;;;;18.30;53.00;;;;;;217932;1295;22554;-62
2023/10/16 12:46:44;;;;;;;;;;;18.50;52.70;;;;;;218350;1295;22748;-64
2023/10/16 12:51:48;;;;;;;;;;;18.30;53.20;;;;;;218414;1282;22787;-63
2023/10/16 12:56:52;;;;;;;;;;;18.30;53.60;;;;;;218175;1295;22536;-64
2023/10/16 13:01:55;;;;;;;;;;;18.30;53.70;;;;;;217973;1295;22546;-62
2023/10/16 13:06:59;;;;;;;;;;;18.30;53.70;;;;;;217955;1295;22931;-62
2023/10/16 13:12:08;;;;;;;;;;;18.40;53.60;;;;;;217992;1293;24321;-62
2023/10/16 13:17:11;;;;;;;;;;;18.60;53.20;;;;;;218002;1289;22617;-63
2023/10/16 13:22:17;;;;;;;;;;;18.70;52.90;;;;;;217878;1295;22586;-63
2023/10/16 13:27:21;;;;;;;;;;;18.60;53.10;;;;;;218432;1295;24225;-63
2023/10/16 13:32:24;;;;;;;;;;;18.90;52.10;;;;;;217914;1294;25313;-63
2023/10/16 13:37:28;;;;;;;;;;;18.90;52.00;;;;;;218217;1295;23940;-63
2023/10/16 13:42:31;;;;;;;;;;;18.70;52.40;;;;;;218030;1295;22531;-63
2023/10/16 13:47:36;;;;;;;;;;;18.70;52.50;;;;;;218070;1294;22534;-63
2023/10/16 13:52:42;;;;;;;;;;;18.70;52.50;;;;;;218483;1289;24226;-62
2023/10/16 13:57:47;;;;;;;;;;;18.70;52.50;;;;;;218437;1292;22533;-63
2023/10/16 14:02:51;;;;;;;;;;;18.70;52.20;;;;;;218429;1295;22546;-62
2023/10/16 14:07:54;;;;;;;;;;;18.60;52.60;;;;;;218265;1282;25410;-63
2023/10/16 14:13:10;;;;;;;;;;;18.60;52.80;;;;;;217874;1289;22530;-64
2023/10/16 14:18:20;;;;;;;;;;;18.50;52.90;;;;;;218385;1286;22584;-64
2023/10/16 14:23:29;;;;;;;;;;;18.50;52.70;;;;;;218416;1295;22545;-63
2023/10/16 14:33:36;;;;;;;;;;;18.40;53.20;;;;;;218550;1279;24370;-62
2023/10/16 14:38:39;;;;;;;;;;;18.40;53.30;;;;;;217839;1292;22549;-63
2023/10/16 14:43:43;;;;;;;;;;;18.40;53.30;;;;;;218300;1295;22651;-62
2023/10/16 14:48:46;;;;;;;;;;;18.40;53.20;;;;;;218523;1295;22530;-63
2023/10/16 14:53:49;;;;;;;;;;;18.30;54.10;;;;;;218605;1289;22605;-62
2023/10/16 14:58:52;;;;;;;;;;;18.50;53.00;;;;;;218116;1295;22544;-62
2023/10/16 15:03:57;;;;;;;;;;;18.50;52.80;;;;;;217924;1295;22657;-63
2023/10/16 15:09:09;;;;;;;;;;;18.50;52.90;;;;;;218030;1294;216294;-63
2023/10/16 15:14:12;;;;;;;;;;;18.40;52.90;;;;;;218204;1295;24212;-63
2023/10/16 15:19:16;;;;;;;;;;;18.50;53.00;;;;;;218190;1289;22650;-63
2023/10/16 15:24:19;;;;;;;;;;;18.50;53.20;;;;;;218398;1292;22554;-63
2023/10/16 15:29:22;;;;;;;;;;;18.50;53.00;;;;;;217922;1295;22637;-62
2023/10/16 15:34:24;;;;;;;;;;;18.40;53.00;;;;;;218020;1295;22530;-63
2023/10/16 15:39:28;;;;;;;;;;;18.40;52.90;;;;;;218160;1295;23776;-62
2023/10/16 15:44:32;;;;;;;;;;;18.50;52.90;;;;;;218026;1295;22549;-63
2023/10/16 15:49:36;;;;;;;;;;;18.50;53.20;;;;;;218260;1292;22564;-62
2023/10/16 15:54:39;;;;;;;;;;;18.40;52.90;;;;;;218525;1295;25014;-62
2023/10/16 15:59:45;;;;;;;;;;;18.40;52.90;;;;;;218210;1295;24273;-62
2023/10/16 16:04:53;;;;;;;;;;;18.40;53.00;;;;;;218102;1280;22569;-61
2023/10/16 16:09:59;;;;;;;;;;;18.40;53.10;;;;;;218144;1293;22536;-62
2023/10/16 16:15:03;;;;;;;;;;;18.30;53.10;;;;;;218161;1292;22695;-64
2023/10/16 16:20:14;;;;;;;;;;;18.30;53.10;;;;;;218384;1292;22527;-62
2023/10/16 16:25:18;;;;;;;;;;;18.40;53.10;;;;;;218356;1295;22534;-63
2023/10/16 16:30:22;;;;;;;;;;;18.40;53.10;;;;;;218027;1295;22522;-62
2023/10/16 16:35:25;;;;;;;;;;;18.30;53.60;;;;;;218083;1280;23439;-62
2023/10/16 16:40:29;;;;;;;;;;;18.30;53.20;;;;;;218157;1292;22533;-64
2023/10/16 16:45:32;;;;;;;;;;;18.30;53.30;;;;;;218274;1293;22524;-61
2023/10/16 16:50:35;;;;;;;;;;;18.20;53.30;;;;;;218055;1289;22640;-62
2023/10/16 16:55:38;;;;;;;;;;;18.20;53.30;;;;;;218250;1295;25236;-64
2023/10/16 17:00:42;;;;;;;;;;;18.20;53.30;;;;;;218175;1279;25248;-65
2023/10/16 17:05:45;;;;;;;;;;;18.20;53.40;;;;;;218039;1294;22672;-63
2023/10/16 17:10:49;;;;;;;;;;;18.20;53.30;;;;;;218425;1295;22656;-63
2023/10/16 17:15:56;;;;;;;;;;;18.20;53.70;;;;;;218254;1289;22530;-64
2023/10/16 17:21:00;;;;;;;;;;;18.20;53.30;;;;;;218610;1292;22534;-62
2023/10/16 17:26:04;;;;;;;;;;;18.20;53.40;;;;;;218183;1292;22904;-63
2023/10/16 17:31:09;;;;;;;;;;;18.20;53.40;;;;;;218134;1295;22567;-63
2023/10/16 17:36:13;;;;;;;;;;;18.20;53.20;;;;;;218317;1282;24301;-64
2023/10/16 17:41:20;;;;;;;;;;;18.20;53.40;;;;;;218121;1279;23947;-62
2023/10/16 17:46:23;;;;;;;;;;;18.10;53.30;;;;;;218531;1289;22534;-62
2023/10/16 17:51:28;;;;;;;;;;;18.10;54.10;;;;;;218266;1292;24222;-64
2023/10/16 17:56:32;;;;;;;;;;;18.20;53.40;;;;;;218081;1289;24045;-66
2023/10/16 18:01:36;;;;;;;;;;;18.10;53.40;;;;;;218264;1294;24766;-63
2023/10/16 18:06:42;;;;;;;;;;;18.10;53.60;;;;;;218503;1295;22524;-61
2023/10/16 18:11:45;;;;;;;;;;;18.10;53.40;;;;;;218151;1295;22703;-63
2023/10/16 18:16:49;;;;;;;;;;;18.10;53.50;;;;;;218457;1292;22618;-62
2023/10/16 18:21:53;;;;;;;;;;;18.10;53.00;;;;;;218256;1295;22534;-62
2023/10/16 18:26:59;;;;;;;;;;;18.10;53.40;;;;;;218569;1295;24233;-62
2023/10/16 18:32:04;;;;;;;;;;;18.10;53.50;;;;;;218160;1295;22813;-65
2023/10/16 18:37:11;;;;;;;;;;;18.10;53.50;;;;;;217927;1295;26617;-62
2023/10/16 18:42:13;;;;;;;;;;;18.10;53.40;;;;;;218511;1292;23478;-61
2023/10/16 18:47:20;;;;;;;;;;;18.00;53.40;;;;;;218248;1293;24416;-62
2023/10/16 18:52:35;;;;;;;;;;;18.00;53.40;;;;;;217910;1295;24225;-62
2023/10/16 18:57:38;;;;;;;;;;;18.00;53.50;;;;;;218120;1295;25243;-62
2023/10/16 19:02:43;;;;;;;;;;;18.00;53.90;;;;;;218568;1289;22531;-62
2023/10/16 19:07:48;;;;;;;;;;;18.00;53.60;;;;;;218151;1295;24497;-62
2023/10/16 19:12:52;;;;;;;;;;;18.00;53.60;;;;;;218683;1279;25252;-62
2023/10/16 19:17:56;;;;;;;;;;;18.00;53.80;;;;;;218093;1295;22527;-64
2023/10/16 19:23:00;;;;;;;;;;;17.90;53.90;;;;;;218039;1295;22821;-63
2023/10/16 19:28:05;;;;;;;;;;;18.00;53.70;;;;;;217997;1295;25936;-63
2023/10/16 19:33:10;;;;;;;;;;;17.90;53.60;;;;;;218049;1292;23892;-63
2023/10/16 19:38:15;;;;;;;;;;;17.90;53.70;;;;;;218275;1295;24282;-63
2023/10/16 19:43:19;;;;;;;;;;;17.90;53.60;;;;;;218610;1295;25425;-63
2023/10/16 19:48:23;;;;;;;;;;;17.90;53.70;;;;;;218088;1279;23258;-62
2023/10/16 19:53:29;;;;;;;;;;;17.90;53.70;;;;;;218308;1292;22523;-64
2023/10/16 19:58:33;;;;;;;;;;;17.90;54.10;;;;;;218491;1295;25299;-62
2023/10/16 20:03:38;;;;;;;;;;;17.90;53.90;;;;;;218419;1292;22656;-63
2023/10/16 20:08:44;;;;;;;;;;;17.90;53.80;;;;;;218193;1291;25278;-63
2023/10/16 20:13:47;;;;;;;;;;;17.90;53.90;;;;;;217983;1295;22584;-63
2023/10/16 20:18:51;;;;;;;;;;;17.80;53.80;;;;;;218647;1295;23802;-62
2023/10/16 20:24:00;;;;;;;;;;;17.80;53.90;;;;;;218396;1295;22529;-62
2023/10/16 20:29:04;;;;;;;;;;;17.80;54.20;;;;;;218612;1289;25592;-63
2023/10/16 20:34:09;;;;;;;;;;;17.80;53.80;;;;;;218260;1279;22581;-63
2023/10/16 20:39:11;;;;;;;;;;;17.80;53.70;;;;;;218362;1279;22539;-62
2023/10/16 20:44:16;;;;;;;;;;;17.80;54.20;;;;;;217926;1295;23633;-62
2023/10/16 20:49:19;;;;;;;;;;;17.80;53.80;;;;;;218125;1295;22630;-62
2023/10/16 20:54:21;;;;;;;;;;;17.80;53.80;;;;;;217939;1292;22520;-62
2023/10/16 20:59:25;;;;;;;;;;;17.80;53.80;;;;;;218095;1295;23783;-62
2023/10/16 21:04:29;;;;;;;;;;;17.80;53.90;;;;;;218376;1288;24170;-63
2023/10/16 21:09:33;;;;;;;;;;;17.80;53.80;;;;;;218376;1295;22522;-65
2023/10/16 21:14:35;;;;;;;;;;;17.80;53.80;;;;;;218030;1289;22523;-62
2023/10/16 21:19:40;;;;;;;;;;;17.70;53.90;;;;;;218420;1292;22582;-63
2023/10/16 21:24:43;;;;;;;;;;;17.70;53.90;;;;;;218031;1295;22583;-64
2023/10/16 21:29:46;;;;;;;;;;;17.70;53.90;;;;;;218370;1292;23993;-63
2023/10/16 21:34:49;;;;;;;;;;;17.70;53.90;;;;;;217889;1292;25337;-63
2023/10/16 21:39:52;;;;;;;;;;;17.70;53.90;;;;;;218206;1292;22533;-63
2023/10/16 21:44:55;;;;;;;;;;;17.70;53.80;;;;;;218060;1294;24056;-64
2023/10/16 21:49:57;;;;;;;;;;;17.70;53.90;;;;;;218146;1289;22615;-62
2023/10/16 21:55:00;;;;;;;;;;;17.70;53.70;;;;;;218025;1292;23973;-63
2023/10/16 22:00:28;;;;;;;;;;;17.70;53.80;;;;;;217953;1295;22539;-63
2023/10/16 22:05:30;;;;;;;;;;;17.70;54.20;;;;;;218109;1288;22602;-63
2023/10/16 22:10:34;;;;;;;;;;;17.70;53.90;;;;;;218140;1294;23300;-63
2023/10/16 22:15:38;;;;;;;;;;;17.70;53.90;;;;;;218409;1292;22537;-62
2023/10/16 22:20:40;;;;;;;;;;;17.60;53.80;;;;;;218068;1295;23927;-64
2023/10/16 22:25:49;;;;;;;;;;;17.70;53.80;;;;;;218417;1292;22534;-62
2023/10/16 22:30:51;;;;;;;;;;;17.60;53.70;;;;;;217887;1292;22577;-63
2023/10/16 22:35:54;;;;;;;;;;;17.60;53.80;;;;;;218273;1292;22669;-63
2023/10/16 22:40:57;;;;;;;;;;;17.60;53.60;;;;;;218245;1289;23902;-63
2023/10/16 22:46:01;;;;;;;;;;;17.60;53.70;;;;;;218052;1289;22524;-61
2023/10/16 22:51:04;;;;;;;;;;;17.60;53.70;;;;;;218404;1292;24959;-61
2023/10/16 22:56:07;;;;;;;;;;;17.60;53.80;;;;;;217993;1295;24209;-62
2023/10/16 23:01:09;;;;;;;;;;;17.50;53.70;;;;;;218042;1292;23184;-62
2023/10/16 23:06:12;;;;;;;;;;;17.60;53.70;;;;;;217834;1295;24390;-61
2023/10/16 23:11:25;;;;;;;;;;;17.50;53.60;;;;;;217890;1289;23934;-60
2023/10/16 23:16:27;;;;;;;;;;;17.60;53.70;;;;;;217902;1289;22589;-61
2023/10/16 23:21:31;;;;;;;;;;;17.50;53.60;;;;;;218239;1290;22536;-62
2023/10/16 23:26:34;;;;;;;;;;;17.50;53.60;;;;;;217883;1292;22519;-62
2023/10/16 23:31:37;;;;;;;;;;;17.50;53.60;;;;;;218056;1282;22653;-61
2023/10/16 23:36:39;;;;;;;;;;;17.50;53.60;;;;;;218229;1295;22534;-62
2023/10/16 23:41:46;;;;;;;;;;;17.50;53.60;;;;;;218034;1295;23498;-62
2023/10/16 23:46:55;;;;;;;;;;;17.50;53.60;;;;;;217845;1294;22543;-62
2023/10/16 23:52:00;;;;;;;;;;;17.50;53.60;;;;;;218024;1288;26518;-62
2023/10/16 23:57:20;;;;;;;;;;;17.40;53.60;;;;;;218498;1292;22618;-63
